ADDS METAR Data INFO
IDs: Format: Raw Decoded Include TAF

Data at: 1847 UTC 17 Oct 2017

KHOB 171750Z 20008G14KT 10SM SKC 24/04 A3027
KHOB 171650Z 22004KT 10SM SKC 21/03 A3028
KHOB 171550Z 18005KT 10SM SKC 18/03 A3029
KHOB 171450Z 19008KT 10SM SKC 14/01 A3030
KHOB 171350Z 00000KT 10SM SKC 08/04 A3028
KHOB 171250Z 31005KT 10SM SKC 05/02 A3028
KHOB 171150Z 26006KT 10SM SKC 06/02 A3027
KHOB 171135Z AUTO 27005KT 10SM CLR 06/02 A3027 RMK AO2
KHOB 171115Z AUTO 27005KT 10SM CLR 07/02 A3026 RMK AO2
KHOB 171055Z AUTO 26005KT 10SM CLR 07/02 A3027 RMK AO2
KHOB 171035Z AUTO 25006KT 10SM CLR 07/02 A3027 RMK AO2
KHOB 171015Z AUTO 26006KT 10SM CLR 07/02 A3027 RMK AO2
KHOB 170955Z AUTO 25005KT 10SM CLR 07/02 A3027 RMK AO2
KHOB 170935Z AUTO 25005KT 10SM CLR 06/02 A3028 RMK AO2
KHOB 170915Z AUTO 26006KT 10SM CLR 07/02 A3029 RMK AO2
KHOB 170855Z AUTO 27006KT 10SM CLR 07/02 A3029 RMK AO2
KHOB 170835Z AUTO 26007KT 10SM CLR 07/03 A3030 RMK AO2
KHOB 170815Z AUTO 25008KT 10SM CLR 07/02 A3030 RMK AO2
KHOB 170755Z AUTO 24007KT 10SM CLR 07/03 A3030 RMK AO2
KHOB 170735Z AUTO 24008KT 10SM CLR 07/02 A3030 RMK AO2
KHOB 170715Z AUTO 24007KT 10SM CLR 06/02 A3030 RMK AO2
KHOB 170655Z AUTO 23005KT 10SM CLR 06/02 A3030 RMK AO2
KHOB 170635Z AUTO 23007KT 10SM CLR 06/02 A3031 RMK AO2
KHOB 170615Z AUTO 24006KT 10SM CLR 06/02 A3031 RMK AO2
KHOB 170555Z AUTO 25003KT 10SM CLR 06/02 A3032 RMK AO2
KHOB 170535Z AUTO 23006KT 10SM CLR 07/02 A3032 RMK AO2
KHOB 170515Z AUTO 23006KT 10SM CLR 07/02 A3033 RMK AO2
KHOB 170455Z AUTO 23006KT 10SM CLR 07/02 A3033 RMK AO2
KHOB 170435Z AUTO 23005KT 10SM CLR 07/02 A3034 RMK AO2
KHOB 170415Z AUTO 23008KT 10SM CLR 09/02 A3034 RMK AO2
KHOB 170355Z AUTO 23008KT 10SM CLR 09/02 A3033 RMK AO2
KHOB 170335Z AUTO 22007KT 10SM CLR 08/02 A3033 RMK AO2
KHOB 170315Z AUTO 22008KT 10SM CLR 08/02 A3033 RMK AO2
KHOB 170255Z AUTO 22006KT 10SM CLR 09/01 A3034 RMK AO2
KHOB 170235Z AUTO 23007KT 10SM CLR 10/01 A3034 RMK AO2
KHOB 170215Z AUTO 23007KT 10SM CLR 10/01 A3033 RMK AO2
KHOB 170155Z AUTO 24007KT 10SM CLR 10/01 A3033 RMK AO2
KHOB 170135Z AUTO 22007KT 10SM CLR 11/00 A3033 RMK AO2
KHOB 170115Z AUTO 21007KT 10SM CLR 12/00 A3033 RMK AO2
KHOB 170055Z AUTO 20007KT 10SM CLR 13/00 A3032 RMK AO2
KHOB 170035Z AUTO 19007KT 10SM CLR 14/00 A3032 RMK AO2
KHOB 170015Z AUTO 19007KT 10SM CLR 16/M00 A3032 RMK AO2
KHOB 162350Z 19007KT 10SM SKC 19/M02 A3032
KHOB 162250Z 20008KT 10SM SKC 21/M03 A3032
KHOB 162150Z 19008KT 10SM SKC 21/M03 A3033
KHOB 162050Z 18005KT 10SM SKC 21/M03 A3035
KHOB 161950Z 19006KT 10SM SKC 20/M03 A3038
KHOB 161850Z 18007KT 10SM SKC 19/M04 A3042
KHOB 161750Z 20005KT 10SM SKC 18/M03 A3046
KHOB 161650Z VRB04KT 10SM SKC 16/M04 A3048
KHOB 161550Z 21005KT 10SM SKC 15/M01 A3050
KHOB 161450Z 20004KT 10SM SKC 12/00 A3050
KHOB 161350Z 00000KT 10SM SKC 06/03 A3048
KHOB 161250Z VRB04KT 10SM SKC 03/00 A3047
KHOB 161150Z 36005KT 10SM SKC 03/00 A3047
KHOB 161135Z AUTO 02004KT 10SM CLR 03/00 A3047 RMK AO2
KHOB 161115Z AUTO 01004KT 10SM CLR 03/01 A3047 RMK AO2
KHOB 161055Z AUTO 36004KT 10SM CLR 03/01 A3047 RMK AO2
KHOB 161035Z AUTO 01003KT 10SM CLR 03/01 A3046 RMK AO2
KHOB 161015Z AUTO 00000KT 10SM CLR 05/01 A3046 RMK AO2
KHOB 160955Z AUTO 00000KT 10SM CLR 06/01 A3046 RMK AO2
KHOB 160935Z AUTO 00000KT 10SM CLR 06/01 A3047 RMK AO2
KHOB 160915Z AUTO 00000KT 10SM CLR 05/01 A3047 RMK AO2
KHOB 160855Z AUTO 00000KT 10SM CLR 06/01 A3047 RMK AO2
KHOB 160835Z AUTO 00000KT 10SM CLR 06/01 A3048 RMK AO2
KHOB 160815Z AUTO 00000KT 10SM CLR 07/01 A3048 RMK AO2
KHOB 160755Z AUTO 21003KT 10SM CLR 07/01 A3049 RMK AO2
KHOB 160735Z AUTO 18003KT 7SM CLR 08/01 A3048 RMK AO2
KHOB 160715Z AUTO 00000KT 10SM CLR 07/01 A3049 RMK AO2
KHOB 160655Z AUTO 00000KT 10SM CLR 07/01 A3049 RMK AO2